Stations météo

Publicité
Ploudalmezeau, France (7101): Température de l'air & dewpoint: 25.10.2020 23:00:00 - 31.10.2020 23:00:00 (CET)Ploudalmezeau, France (7101): Vitesse du vent & gusts: 25.10.2020 23:00:00 - 31.10.2020 23:00:00 (CET)Ploudalmezeau, France (7101): Direction du vent: 25.10.2020 23:00:00 - 31.10.2020 23:00:00 (CET)Ploudalmezeau, France (7101): reduced air pressure: 25.10.2020 23:00:00 - 31.10.2020 23:00:00 (CET)Ploudalmezeau, France (7101): Quantités de précipitations: 25.10.2020 23:00:00 - 31.10.2020 23:00:00 (CET)
Date & Time tt [°C] td [°C] ff [km/h] ff [knt] fx [km/h] fx [knt] dd ppp [hPa] rr [mm]
31.10.2020 23:00:00 11,9 10,1 17 9 - - SSW 1013,3 0,2
31.10.2020 22:00:00 12,0 9,6 14 7 - - SSW 1014,1 0,0
31.10.2020 21:00:00 12,0 9,0 12 6 - - SSW 1014,3 0,0
31.10.2020 20:00:00 11,6 7,9 10 5 - - SW 1015,0 0,0
31.10.2020 19:00:00 11,8 7,9 13 7 - - SW 1014,9 0,0
31.10.2020 18:00:00 11,6 8,4 10 5 - - WSW 1014,6 0,0
31.10.2020 17:00:00 12,6 8,1 16 8 - - W 1015,1 0,0
31.10.2020 16:00:00 13,3 8,1 21 11 - - W 1014,7 0,0
31.10.2020 15:00:00 13,5 8,5 26 14 - - W 1014,4 0,0
31.10.2020 14:00:00 13,8 9,4 26 14 - - W 1013,9 0,0
31.10.2020 13:00:00 14,2 11,2 29 16 - - W 1013,6 0,0
31.10.2020 12:00:00 13,4 12,5 32 17 - - W 1012,5 0,0
31.10.2020 11:00:00 13,6 13,1 29 15 - - W 1010,8 1,6
31.10.2020 10:00:00 15,3 14,7 39 21 - - SSW 1008,5 5,4
31.10.2020 09:00:00 15,3 14,5 43 23 - - SSW 1008,9 0,4
31.10.2020 08:00:00 14,9 14,1 37 20 - - SSW 1009,3 1,0
31.10.2020 07:00:00 14,5 12,9 35 19 - - SSW 1010,8 0,4
31.10.2020 06:00:00 15,3 13,0 37 20 - - S 1011,7 0,0
31.10.2020 05:00:00 14,6 12,8 33 18 - - S 1013,0 0,0
31.10.2020 04:00:00 14,5 13,4 31 17 - - S 1014,1 0,0
31.10.2020 03:00:00 14,5 13,9 27 14 - - SSW 1015,8 0,0
31.10.2020 02:00:00 14,3 13,8 29 16 - - SSW 1015,9 0,0
31.10.2020 01:00:00 14,2 13,6 29 16 - - SSW 1017,0 0,0
31.10.2020 00:00:00 14,1 13,6 27 15 - - SSW 1017,6 0,0
30.10.2020 23:00:00 14,0 13,7 25 13 - - SSW 1018,3 0,0
30.10.2020 22:00:00 13,9 13,6 24 13 - - SSW 1019,2 0,0
30.10.2020 21:00:00 14,0 13,7 23 13 - - SSW 1019,6 0,2
30.10.2020 20:00:00 14,1 13,6 22 12 - - SSW 1019,9 0,0
30.10.2020 19:00:00 14,2 13,6 24 13 - - SSW 1020,1 0,0
30.10.2020 18:00:00 14,4 13,8 22 12 - - SSW 1019,6 0,0
30.10.2020 17:00:00 14,4 13,8 24 13 - - SSW 1019,8 0,0
30.10.2020 16:00:00 14,3 13,7 25 13 - - SSW 1020,1 0,4
30.10.2020 15:00:00 14,3 13,3 26 14 - - SW 1020,4 0,2
30.10.2020 14:00:00 14,9 13,3 29 15 - - SW 1020,4 0,0
30.10.2020 13:00:00 14,8 13,2 29 15 - - SW 1020,7 0,0
30.10.2020 12:00:00 15,0 13,7 32 17 - - SW 1020,8 0,0
30.10.2020 11:00:00 14,6 13,6 29 16 - - SW 1020,4 0,0
30.10.2020 10:00:00 14,5 13,5 27 15 51 28 SW 1020,3 0,0
30.10.2020 09:00:00 14,5 13,4 29 16 - - SW 1020,0 0,0
30.10.2020 08:00:00 14,3 13,3 29 16 - - SW 1019,4 0,0
30.10.2020 07:00:00 14,4 13,3 32 17 - - SW 1019,1 0,0
30.10.2020 06:00:00 14,5 12,7 29 15 - - SW 1019,0 0,0
30.10.2020 05:00:00 14,5 12,5 30 16 - - SW 1018,9 0,0
30.10.2020 04:00:00 14,5 12,5 26 14 - - SW 1019,0 0,0
30.10.2020 03:00:00 14,5 13,0 29 16 - - SW 1019,3 0,0
30.10.2020 02:00:00 14,6 13,1 31 17 - - SW 1019,2 0,0
30.10.2020 01:00:00 14,6 13,3 30 16 - - SW 1019,1 0,0
30.10.2020 00:00:00 14,4 13,6 30 16 - - SW 1019,1 0,0
29.10.2020 23:00:00 14,4 13,6 29 16 - - SW 1019,0 0,0
29.10.2020 22:00:00 14,3 13,5 30 16 - - SW 1019,0 0,0
29.10.2020 21:00:00 14,5 13,5 29 16 - - SW 1018,7 0,0
29.10.2020 20:00:00 14,6 13,3 26 14 - - SW 1018,8 0,0
29.10.2020 19:00:00 14,8 13,3 29 16 - - SW 1018,5 0,0
29.10.2020 18:00:00 14,8 13,2 31 17 - - SW 1018,3 0,0
29.10.2020 17:00:00 14,8 13,0 28 15 - - WSW 1018,2 0,0
29.10.2020 16:00:00 15,3 13,1 35 19 - - SW 1018,0 0,0
29.10.2020 15:00:00 15,1 13,8 34 18 - - WSW 1018,3 0,0
29.10.2020 14:00:00 14,8 13,8 34 18 - - WSW 1018,3 0,2
29.10.2020 13:00:00 15,0 13,4 32 17 - - SW 1018,4 0,0
29.10.2020 12:00:00 15,4 13,9 31 17 - - SW 1018,6 0,0
29.10.2020 11:00:00 14,7 13,7 30 16 - - WSW 1018,4 0,0
29.10.2020 10:00:00 14,1 13,1 28 15 - - WSW 1018,0 0,0
29.10.2020 09:00:00 13,7 12,9 26 14 - - WSW 1017,5 0,0
29.10.2020 08:00:00 13,6 12,8 27 14 - - WSW 1017,1 0,0
29.10.2020 07:00:00 13,6 12,8 24 13 - - WSW 1016,9 0,0
29.10.2020 06:00:00 13,4 12,5 23 12 - - WSW 1017,0 0,0
29.10.2020 05:00:00 13,1 12,2 21 11 - - WSW 1016,6 0,0
29.10.2020 04:00:00 12,5 11,6 16 8 - - WSW 1016,6 0,0
29.10.2020 03:00:00 12,0 10,9 19 10 - - W 1016,6 0,0
29.10.2020 02:00:00 12,0 11,1 25 13 - - W 1016,4 0,6
29.10.2020 01:00:00 12,7 11,4 18 10 - - WSW 1016,2 0,0
29.10.2020 00:00:00 12,6 11,2 20 11 - - WSW 1016,0 0,0
28.10.2020 23:00:00 12,6 11,3 23 13 - - W 1015,3 0,0
28.10.2020 22:00:00 12,5 10,9 23 12 - - W 1014,7 0,2
28.10.2020 21:00:00 12,4 10,8 24 13 - - W 1013,8 0,2
28.10.2020 20:00:00 11,5 9,7 23 13 - - W 1013,4 0,8
28.10.2020 19:00:00 13,0 10,5 30 16 - - W 1012,1 0,0
28.10.2020 18:00:00 12,9 10,4 26 14 - - W 1011,3 0,0
28.10.2020 17:00:00 13,3 10,3 29 16 - - W 1010,8 0,0
28.10.2020 16:00:00 13,7 10,9 31 17 - - W 1010,1 0,0
28.10.2020 15:00:00 13,3 10,3 32 18 - - WSW 1009,5 0,0
28.10.2020 14:00:00 14,1 11,1 34 19 - - W 1009,4 0,0
28.10.2020 13:00:00 13,7 10,9 33 18 - - WSW 1008,9 0,0
28.10.2020 12:00:00 13,4 10,9 29 16 - - WSW 1008,7 0,0
28.10.2020 11:00:00 13,0 10,9 31 17 - - WSW 1008,3 0,0
28.10.2020 10:00:00 12,9 10,3 25 13 - - WSW 1008,0 0,0
28.10.2020 09:00:00 12,2 9,2 30 16 - - WSW 1007,6 0,0
28.10.2020 08:00:00 12,7 10,1 26 14 - - WSW 1007,0 0,0
28.10.2020 07:00:00 12,2 9,8 24 13 - - WSW 1006,6 0,0
28.10.2020 06:00:00 12,4 9,9 25 13 - - W 1006,6 0,0
28.10.2020 05:00:00 11,8 8,8 29 16 - - W 1006,6 0,0
28.10.2020 04:00:00 12,0 10,2 21 11 - - WSW 1006,0 0,0
28.10.2020 03:00:00 11,3 9,0 29 15 - - W 1006,8 0,4
28.10.2020 02:00:00 11,9 8,2 27 15 - - WSW 1006,4 0,4
28.10.2020 01:00:00 12,1 8,9 26 14 - - W 1006,4 0,0
28.10.2020 00:00:00 11,9 10,0 24 13 - - WSW 1006,0 0,4
27.10.2020 23:00:00 12,4 9,9 21 12 - - WSW 1005,8 0,0
27.10.2020 22:00:00 11,7 9,4 19 11 - - WSW 1005,6 0,0
27.10.2020 21:00:00 11,5 9,9 18 10 - - W 1004,8 0,0
27.10.2020 20:00:00 11,6 10,2 17 9 - - WSW 1004,2 0,0
27.10.2020 19:00:00 11,7 9,8 13 7 - - WSW 1003,6 0,0
27.10.2020 18:00:00 11,9 9,8 20 11 - - W 1002,8 0,0
27.10.2020 17:00:00 13,8 12,0 25 14 - - W 1002,1 0,0
27.10.2020 16:00:00 14,4 12,6 26 14 - - W 1001,6 0,0
27.10.2020 15:00:00 14,7 12,9 22 12 - - WSW 1001,0 0,0
27.10.2020 14:00:00 14,4 13,6 29 16 - - W 1001,0 0,0
27.10.2020 13:00:00 14,8 14,6 26 14 - - W 1000,2 0,0
27.10.2020 12:00:00 14,3 14,1 30 16 - - W 999,7 0,0
27.10.2020 11:00:00 14,6 14,4 32 17 - - WSW 999,1 0,2
27.10.2020 10:00:00 14,2 14,0 31 17 - - WSW 999,2 0,6
27.10.2020 09:00:00 13,8 13,5 34 19 - - SW 999,6 0,4
27.10.2020 08:00:00 12,7 12,4 28 15 - - SSW 1000,0 1,6
27.10.2020 07:00:00 12,0 11,5 24 13 - - SSW 1001,0 1,4
27.10.2020 06:00:00 11,8 11,2 24 13 - - SSW 1002,5 0,6
27.10.2020 05:00:00 11,0 10,2 23 12 - - SW 1003,6 1,4
27.10.2020 04:00:00 10,6 9,7 18 10 - - SW 1004,8 1,4
27.10.2020 03:00:00 11,4 10,1 16 9 - - WSW 1005,9 0,6
27.10.2020 02:00:00 11,7 10,1 17 9 - - WSW 1006,6 0,0
27.10.2020 01:00:00 10,7 9,0 14 7 - - WSW 1007,3 0,0
27.10.2020 00:00:00 11,1 9,0 18 10 - - W 1007,7 0,0
26.10.2020 23:00:00 10,6 8,9 16 9 - - W 1008,3 0,0
26.10.2020 22:00:00 10,8 9,1 14 8 - - W 1008,3 0,0
26.10.2020 21:00:00 10,9 8,1 20 11 - - W 1008,2 0,0
26.10.2020 20:00:00 11,2 8,2 19 10 - - W 1008,0 0,0
26.10.2020 19:00:00 11,1 8,3 18 10 - - WNW 1007,9 0,0
26.10.2020 18:00:00 11,7 8,2 24 13 - - WNW 1007,5 0,0
26.10.2020 17:00:00 12,5 8,8 28 15 - - WNW 1007,3 0,0
26.10.2020 16:00:00 13,0 8,3 32 17 - - WNW 1007,1 0,0
26.10.2020 15:00:00 13,2 9,1 34 18 - - WNW 1006,7 0,0
26.10.2020 14:00:00 13,4 9,4 28 15 - - WNW 1006,7 0,0
26.10.2020 13:00:00 13,5 10,5 28 15 - - WNW 1006,6 0,0
26.10.2020 12:00:00 13,2 10,4 31 17 - - WNW 1006,5 0,2
26.10.2020 11:00:00 13,0 9,6 31 17 - - WNW 1006,0 0,0
26.10.2020 10:00:00 12,3 9,5 29 16 - - W 1005,7 0,0
26.10.2020 09:00:00 11,7 8,2 30 16 - - WNW 1005,3 0,0
26.10.2020 08:00:00 11,2 9,1 22 12 - - W 1004,3 0,0
26.10.2020 07:00:00 10,1 7,9 30 16 - - W 1003,8 0,0
26.10.2020 06:00:00 10,3 8,2 29 16 - - WNW 1003,3 1,8
26.10.2020 05:00:00 11,4 8,6 31 17 - - WNW 1002,9 0,4
26.10.2020 04:00:00 12,0 8,8 29 16 - - W 1002,5 0,0
26.10.2020 03:00:00 10,8 8,4 19 10 - - W 1002,6 0,0
26.10.2020 02:00:00 11,2 8,8 26 14 - - W 1002,5 0,0
26.10.2020 01:00:00 11,1 8,0 25 14 - - W 1002,3 0,0
26.10.2020 00:00:00 10,0 7,6 16 9 - - W 1002,3 0,0
25.10.2020 23:00:00 10,6 6,7 23 12 - - W 1002,1 0,0

tt = Température de l'air
td = dewpoint
ff = Vitesse du vent
fx = gusts
dd = Direction du vent
ppp = reduced air pressure
rr = Quantités de précipitations

stations d'obs. à proximité